sensor_id;sensor_type;location;lat;lon;timestamp;P1;durP1;ratioP1;P2;durP2;ratioP2
61640;SDS011;62201;49.966;8.342;2023-04-01T00:00:50;7.72;;;1.55;;
61640;SDS011;62201;49.966;8.342;2023-04-01T00:03:17;6.20;;;1.23;;
61640;SDS011;62201;49.966;8.342;2023-04-01T00:05:42;7.45;;;1.50;;
61640;SDS011;62201;49.966;8.342;2023-04-01T00:08:08;8.55;;;1.20;;
61640;SDS011;62201;49.966;8.342;2023-04-01T00:10:33;7.78;;;1.50;;
61640;SDS011;62201;49.966;8.342;2023-04-01T00:12:59;8.43;;;1.63;;
61640;SDS011;62201;49.966;8.342;2023-04-01T00:15:24;6.75;;;1.30;;
61640;SDS011;62201;49.966;8.342;2023-04-01T00:17:51;8.85;;;1.52;;
61640;SDS011;62201;49.966;8.342;2023-04-01T00:20:16;5.65;;;1.30;;
61640;SDS011;62201;49.966;8.342;2023-04-01T00:22:42;5.00;;;1.05;;
61640;SDS011;62201;49.966;8.342;2023-04-01T00:25:08;8.85;;;1.55;;
61640;SDS011;62201;49.966;8.342;2023-04-01T00:27:34;7.55;;;1.42;;
61640;SDS011;62201;49.966;8.342;2023-04-01T00:30:00;7.75;;;1.20;;
61640;SDS011;62201;49.966;8.342;2023-04-01T00:32:26;7.63;;;1.27;;
61640;SDS011;62201;49.966;8.342;2023-04-01T00:34:51;7.25;;;1.80;;
61640;SDS011;62201;49.966;8.342;2023-04-01T00:37:18;5.07;;;1.50;;
61640;SDS011;62201;49.966;8.342;2023-04-01T00:39:44;3.90;;;1.00;;
61640;SDS011;62201;49.966;8.342;2023-04-01T00:42:09;10.80;;;2.05;;
61640;SDS011;62201;49.966;8.342;2023-04-01T00:44:36;6.45;;;1.05;;
61640;SDS011;62201;49.966;8.342;2023-04-01T00:47:02;4.85;;;1.35;;
61640;SDS011;62201;49.966;8.342;2023-04-01T00:49:32;4.07;;;1.40;;
61640;SDS011;62201;49.966;8.342;2023-04-01T00:52:03;4.90;;;1.20;;
61640;SDS011;62201;49.966;8.342;2023-04-01T00:54:31;6.07;;;1.15;;
61640;SDS011;62201;49.966;8.342;2023-04-01T00:56:58;6.38;;;1.40;;
61640;SDS011;62201;49.966;8.342;2023-04-01T00:59:27;8.00;;;1.08;;
61640;SDS011;62201;49.966;8.342;2023-04-01T01:01:56;7.68;;;1.23;;
61640;SDS011;62201;49.966;8.342;2023-04-01T01:09:25;7.05;;;1.33;;
61640;SDS011;62201;49.966;8.342;2023-04-01T01:11:56;4.78;;;1.20;;
61640;SDS011;62201;49.966;8.342;2023-04-01T01:17:32;5.80;;;1.35;;
61640;SDS011;62201;49.966;8.342;2023-04-01T01:32:01;6.40;;;0.95;;
61640;SDS011;62201;49.966;8.342;2023-04-01T01:37:14;5.13;;;1.00;;
61640;SDS011;62201;49.966;8.342;2023-04-01T01:39:43;4.90;;;0.82;;
61640;SDS011;62201;49.966;8.342;2023-04-01T01:42:13;5.15;;;1.02;;
61640;SDS011;62201;49.966;8.342;2023-04-01T01:44:41;5.68;;;1.20;;
61640;SDS011;62201;49.966;8.342;2023-04-01T01:47:10;4.18;;;0.90;;
61640;SDS011;62201;49.966;8.342;2023-04-01T01:49:37;5.57;;;1.13;;
61640;SDS011;62201;49.966;8.342;2023-04-01T01:52:05;6.90;;;1.20;;
61640;SDS011;62201;49.966;8.342;2023-04-01T01:54:31;4.88;;;1.13;;
61640;SDS011;62201;49.966;8.342;2023-04-01T01:56:59;5.88;;;0.70;;
61640;SDS011;62201;49.966;8.342;2023-04-01T01:59:36;5.57;;;1.00;;
61640;SDS011;62201;49.966;8.342;2023-04-01T02:02:05;3.55;;;0.90;;
61640;SDS011;62201;49.966;8.342;2023-04-01T02:04:39;5.85;;;1.38;;
61640;SDS011;62201;49.966;8.342;2023-04-01T02:07:08;4.07;;;1.20;;
61640;SDS011;62201;49.966;8.342;2023-04-01T02:09:38;5.75;;;1.33;;
61640;SDS011;62201;49.966;8.342;2023-04-01T02:12:06;4.40;;;0.80;;
61640;SDS011;62201;49.966;8.342;2023-04-01T02:17:10;6.32;;;1.55;;
61640;SDS011;62201;49.966;8.342;2023-04-01T02:19:53;2.22;;;0.80;;
61640;SDS011;62201;49.966;8.342;2023-04-01T02:22:29;5.10;;;1.13;;
61640;SDS011;62201;49.966;8.342;2023-04-01T02:24:59;3.03;;;0.77;;
61640;SDS011;62201;49.966;8.342;2023-04-01T02:27:29;5.80;;;0.80;;
61640;SDS011;62201;49.966;8.342;2023-04-01T02:29:55;6.32;;;1.00;;
61640;SDS011;62201;49.966;8.342;2023-04-01T02:32:20;4.68;;;0.80;;
61640;SDS011;62201;49.966;8.342;2023-04-01T02:34:46;5.32;;;1.02;;
61640;SDS011;62201;49.966;8.342;2023-04-01T02:37:13;8.80;;;1.50;;
61640;SDS011;62201;49.966;8.342;2023-04-01T02:39:39;4.82;;;1.50;;
61640;SDS011;62201;49.966;8.342;2023-04-01T02:42:07;5.22;;;0.88;;
61640;SDS011;62201;49.966;8.342;2023-04-01T02:44:32;6.00;;;1.10;;
61640;SDS011;62201;49.966;8.342;2023-04-01T02:46:58;5.22;;;1.20;;
61640;SDS011;62201;49.966;8.342;2023-04-01T02:49:23;5.30;;;1.27;;
61640;SDS011;62201;49.966;8.342;2023-04-01T02:51:49;4.97;;;1.10;;
61640;SDS011;62201;49.966;8.342;2023-04-01T02:54:14;4.70;;;1.25;;
61640;SDS011;62201;49.966;8.342;2023-04-01T02:56:40;3.55;;;0.93;;
61640;SDS011;62201;49.966;8.342;2023-04-01T02:59:05;3.30;;;0.85;;
61640;SDS011;62201;49.966;8.342;2023-04-01T03:01:31;7.45;;;1.10;;
61640;SDS011;62201;49.966;8.342;2023-04-01T03:03:59;6.50;;;0.90;;
61640;SDS011;62201;49.966;8.342;2023-04-01T03:06:24;5.70;;;0.90;;
61640;SDS011;62201;49.966;8.342;2023-04-01T03:08:50;4.57;;;1.10;;
61640;SDS011;62201;49.966;8.342;2023-04-01T03:11:15;5.57;;;1.30;;
61640;SDS011;62201;49.966;8.342;2023-04-01T03:13:41;5.97;;;1.40;;
61640;SDS011;62201;49.966;8.342;2023-04-01T03:16:06;4.80;;;0.95;;
61640;SDS011;62201;49.966;8.342;2023-04-01T03:18:32;3.92;;;1.17;;
61640;SDS011;62201;49.966;8.342;2023-04-01T03:20:57;4.75;;;1.05;;
61640;SDS011;62201;49.966;8.342;2023-04-01T03:23:36;3.75;;;0.88;;
61640;SDS011;62201;49.966;8.342;2023-04-01T03:26:01;5.65;;;1.10;;
61640;SDS011;62201;49.966;8.342;2023-04-01T03:28:27;6.20;;;1.30;;
61640;SDS011;62201;49.966;8.342;2023-04-01T03:30:52;8.30;;;1.52;;
61640;SDS011;62201;49.966;8.342;2023-04-01T03:33:17;4.88;;;0.93;;
61640;SDS011;62201;49.966;8.342;2023-04-01T03:35:43;5.63;;;1.08;;
61640;SDS011;62201;49.966;8.342;2023-04-01T03:38:08;4.82;;;1.13;;
61640;SDS011;62201;49.966;8.342;2023-04-01T03:40:33;5.28;;;0.95;;
61640;SDS011;62201;49.966;8.342;2023-04-01T03:43:02;7.07;;;1.20;;
61640;SDS011;62201;49.966;8.342;2023-04-01T03:45:27;6.50;;;1.42;;
61640;SDS011;62201;49.966;8.342;2023-04-01T03:47:53;4.47;;;1.25;;
61640;SDS011;62201;49.966;8.342;2023-04-01T03:50:19;6.53;;;1.10;;
61640;SDS011;62201;49.966;8.342;2023-04-01T03:52:44;6.70;;;1.65;;
61640;SDS011;62201;49.966;8.342;2023-04-01T03:55:10;4.78;;;1.15;;
61640;SDS011;62201;49.966;8.342;2023-04-01T03:57:35;4.22;;;0.90;;
61640;SDS011;62201;49.966;8.342;2023-04-01T04:00:01;5.40;;;1.15;;
61640;SDS011;62201;49.966;8.342;2023-04-01T04:02:27;6.43;;;1.55;;
61640;SDS011;62201;49.966;8.342;2023-04-01T04:04:52;7.18;;;1.05;;
61640;SDS011;62201;49.966;8.342;2023-04-01T04:07:17;8.52;;;1.20;;
61640;SDS011;62201;49.966;8.342;2023-04-01T04:09:43;4.10;;;1.25;;
61640;SDS011;62201;49.966;8.342;2023-04-01T04:12:09;6.75;;;1.20;;
61640;SDS011;62201;49.966;8.342;2023-04-01T04:14:34;4.35;;;1.00;;
61640;SDS011;62201;49.966;8.342;2023-04-01T04:16:59;6.30;;;1.00;;
61640;SDS011;62201;49.966;8.342;2023-04-01T04:19:25;10.82;;;1.33;;
61640;SDS011;62201;49.966;8.342;2023-04-01T04:21:50;5.00;;;1.13;;
61640;SDS011;62201;49.966;8.342;2023-04-01T04:24:16;6.00;;;1.02;;
61640;SDS011;62201;49.966;8.342;2023-04-01T04:26:41;3.75;;;0.82;;
61640;SDS011;62201;49.966;8.342;2023-04-01T04:29:06;6.07;;;1.10;;
61640;SDS011;62201;49.966;8.342;2023-04-01T04:31:32;5.22;;;1.33;;
61640;SDS011;62201;49.966;8.342;2023-04-01T04:33:58;5.43;;;0.90;;
61640;SDS011;62201;49.966;8.342;2023-04-01T04:36:25;6.13;;;1.33;;
61640;SDS011;62201;49.966;8.342;2023-04-01T04:38:51;5.30;;;1.30;;
61640;SDS011;62201;49.966;8.342;2023-04-01T04:41:17;4.30;;;1.00;;
61640;SDS011;62201;49.966;8.342;2023-04-01T04:43:48;5.15;;;1.20;;
61640;SDS011;62201;49.966;8.342;2023-04-01T04:46:19;5.65;;;1.00;;
61640;SDS011;62201;49.966;8.342;2023-04-01T04:48:45;8.55;;;1.30;;
61640;SDS011;62201;49.966;8.342;2023-04-01T04:51:17;5.57;;;1.10;;
61640;SDS011;62201;49.966;8.342;2023-04-01T04:53:44;4.97;;;0.90;;
61640;SDS011;62201;49.966;8.342;2023-04-01T04:56:10;6.57;;;1.08;;
61640;SDS011;62201;49.966;8.342;2023-04-01T04:58:36;7.78;;;1.52;;
61640;SDS011;62201;49.966;8.342;2023-04-01T05:01:10;4.30;;;1.13;;
61640;SDS011;62201;49.966;8.342;2023-04-01T05:03:37;5.57;;;1.00;;
61640;SDS011;62201;49.966;8.342;2023-04-01T05:06:03;5.95;;;1.13;;
61640;SDS011;62201;49.966;8.342;2023-04-01T05:08:29;6.20;;;0.98;;
61640;SDS011;62201;49.966;8.342;2023-04-01T05:10:55;3.67;;;0.80;;
61640;SDS011;62201;49.966;8.342;2023-04-01T05:13:20;6.80;;;0.93;;
61640;SDS011;62201;49.966;8.342;2023-04-01T05:15:45;6.07;;;1.00;;
61640;SDS011;62201;49.966;8.342;2023-04-01T05:18:11;6.22;;;1.00;;
61640;SDS011;62201;49.966;8.342;2023-04-01T05:20:36;6.32;;;1.00;;
61640;SDS011;62201;49.966;8.342;2023-04-01T05:23:02;4.75;;;0.70;;
61640;SDS011;62201;49.966;8.342;2023-04-01T05:25:27;3.78;;;0.93;;
61640;SDS011;62201;49.966;8.342;2023-04-01T05:27:53;6.00;;;0.93;;
61640;SDS011;62201;49.966;8.342;2023-04-01T05:30:18;4.40;;;0.70;;
61640;SDS011;62201;49.966;8.342;2023-04-01T05:32:44;3.63;;;0.77;;
61640;SDS011;62201;49.966;8.342;2023-04-01T05:35:09;4.93;;;1.10;;
61640;SDS011;62201;49.966;8.342;2023-04-01T05:37:35;6.63;;;0.90;;
61640;SDS011;62201;49.966;8.342;2023-04-01T05:40:01;3.08;;;0.70;;
61640;SDS011;62201;49.966;8.342;2023-04-01T05:42:27;4.65;;;1.15;;
61640;SDS011;62201;49.966;8.342;2023-04-01T05:44:52;5.05;;;0.90;;
61640;SDS011;62201;49.966;8.342;2023-04-01T05:47:18;4.25;;;0.73;;
61640;SDS011;62201;49.966;8.342;2023-04-01T05:49:43;3.58;;;0.65;;
61640;SDS011;62201;49.966;8.342;2023-04-01T05:52:08;2.80;;;0.68;;
61640;SDS011;62201;49.966;8.342;2023-04-01T05:54:34;1.73;;;0.50;;
61640;SDS011;62201;49.966;8.342;2023-04-01T05:56:59;2.60;;;0.70;;
61640;SDS011;62201;49.966;8.342;2023-04-01T05:59:25;4.75;;;0.63;;
61640;SDS011;62201;49.966;8.342;2023-04-01T06:01:50;2.88;;;0.77;;
61640;SDS011;62201;49.966;8.342;2023-04-01T06:04:16;2.47;;;0.88;;
61640;SDS011;62201;49.966;8.342;2023-04-01T06:06:43;3.40;;;0.50;;
61640;SDS011;62201;49.966;8.342;2023-04-01T06:09:19;2.85;;;0.52;;
61640;SDS011;62201;49.966;8.342;2023-04-01T06:20:24;4.25;;;0.65;;
61640;SDS011;62201;49.966;8.342;2023-04-01T06:23:09;2.80;;;0.47;;
61640;SDS011;62201;49.966;8.342;2023-04-01T06:25:50;2.25;;;0.88;;
61640;SDS011;62201;49.966;8.342;2023-04-01T06:28:41;4.40;;;1.13;;
61640;SDS011;62201;49.966;8.342;2023-04-01T06:31:21;2.95;;;0.40;;
61640;SDS011;62201;49.966;8.342;2023-04-01T06:34:05;3.00;;;0.45;;
61640;SDS011;62201;49.966;8.342;2023-04-01T06:55:46;2.10;;;0.60;;
61640;SDS011;62201;49.966;8.342;2023-04-01T07:00:43;3.03;;;0.63;;
61640;SDS011;62201;49.966;8.342;2023-04-01T07:03:21;2.45;;;0.40;;
61640;SDS011;62201;49.966;8.342;2023-04-01T07:06:24;1.95;;;0.50;;
61640;SDS011;62201;49.966;8.342;2023-04-01T07:09:00;1.15;;;0.30;;
61640;SDS011;62201;49.966;8.342;2023-04-01T07:11:34;0.68;;;0.17;;
61640;SDS011;62201;49.966;8.342;2023-04-01T07:16:50;2.63;;;0.52;;
61640;SDS011;62201;49.966;8.342;2023-04-01T07:19:23;1.75;;;0.40;;
61640;SDS011;62201;49.966;8.342;2023-04-01T07:22:04;3.60;;;0.50;;
61640;SDS011;62201;49.966;8.342;2023-04-01T07:24:42;0.98;;;0.28;;
61640;SDS011;62201;49.966;8.342;2023-04-01T07:27:10;2.60;;;0.65;;
61640;SDS011;62201;49.966;8.342;2023-04-01T07:29:37;1.80;;;0.50;;
61640;SDS011;62201;49.966;8.342;2023-04-01T07:32:39;2.33;;;0.30;;
61640;SDS011;62201;49.966;8.342;2023-04-01T07:35:04;1.02;;;0.40;;
61640;SDS011;62201;49.966;8.342;2023-04-01T07:38:02;2.67;;;0.30;;
61640;SDS011;62201;49.966;8.342;2023-04-01T07:40:57;1.23;;;0.30;;
61640;SDS011;62201;49.966;8.342;2023-04-01T07:54:47;2.05;;;0.30;;
61640;SDS011;62201;49.966;8.342;2023-04-01T07:57:35;1.48;;;0.30;;
61640;SDS011;62201;49.966;8.342;2023-04-01T08:00:24;1.48;;;0.50;;
61640;SDS011;62201;49.966;8.342;2023-04-01T08:02:59;1.58;;;0.40;;
61640;SDS011;62201;49.966;8.342;2023-04-01T08:05:46;2.97;;;0.30;;
61640;SDS011;62201;49.966;8.342;2023-04-01T08:08:31;1.08;;;0.30;;
61640;SDS011;62201;49.966;8.342;2023-04-01T08:16:28;0.40;;;0.20;;
61640;SDS011;62201;49.966;8.342;2023-04-01T08:22:02;2.17;;;0.30;;
61640;SDS011;62201;49.966;8.342;2023-04-01T08:24:35;1.70;;;0.25;;
61640;SDS011;62201;49.966;8.342;2023-04-01T08:27:06;1.45;;;0.30;;
61640;SDS011;62201;49.966;8.342;2023-04-01T08:29:48;0.93;;;0.40;;
61640;SDS011;62201;49.966;8.342;2023-04-01T08:32:18;1.15;;;0.30;;
61640;SDS011;62201;49.966;8.342;2023-04-01T08:37:48;0.55;;;0.10;;
61640;SDS011;62201;49.966;8.342;2023-04-01T08:43:16;0.68;;;0.15;;
61640;SDS011;62201;49.966;8.342;2023-04-01T08:46:07;1.33;;;0.30;;
61640;SDS011;62201;49.966;8.342;2023-04-01T08:49:05;0.35;;;0.10;;
61640;SDS011;62201;49.966;8.342;2023-04-01T08:52:01;1.30;;;0.20;;
61640;SDS011;62201;49.966;8.342;2023-04-01T08:57:55;0.45;;;0.17;;
61640;SDS011;62201;49.966;8.342;2023-04-01T09:00:47;0.40;;;0.20;;
61640;SDS011;62201;49.966;8.342;2023-04-01T09:09:02;1.00;;;0.30;;
61640;SDS011;62201;49.966;8.342;2023-04-01T09:20:03;1.10;;;0.20;;
61640;SDS011;62201;49.966;8.342;2023-04-01T09:23:08;0.70;;;0.20;;
61640;SDS011;62201;49.966;8.342;2023-04-01T09:28:28;1.55;;;0.28;;
61640;SDS011;62201;49.966;8.342;2023-04-01T09:42:15;1.08;;;0.22;;
61640;SDS011;62201;49.966;8.342;2023-04-01T09:44:59;0.50;;;0.20;;
61640;SDS011;62201;49.966;8.342;2023-04-01T10:07:15;0.45;;;0.20;;
61640;SDS011;62201;49.966;8.342;2023-04-01T10:21:16;0.28;;;0.10;;
61640;SDS011;62201;49.966;8.342;2023-04-01T10:37:21;1.75;;;0.10;;
61640;SDS011;62201;49.966;8.342;2023-04-01T10:45:46;0.10;;;0.10;;
61640;SDS011;62201;49.966;8.342;2023-04-01T10:48:20;0.32;;;0.10;;
61640;SDS011;62201;49.966;8.342;2023-04-01T10:51:25;0.55;;;0.17;;
61640;SDS011;62201;49.966;8.342;2023-04-01T10:54:30;0.40;;;0.20;;
61640;SDS011;62201;49.966;8.342;2023-04-01T10:57:02;0.10;;;0.10;;
61640;SDS011;62201;49.966;8.342;2023-04-01T11:00:14;0.45;;;0.20;;
61640;SDS011;62201;49.966;8.342;2023-04-01T11:11:02;0.20;;;0.10;;
61640;SDS011;62201;49.966;8.342;2023-04-01T11:30:04;0.75;;;0.10;;
61640;SDS011;62201;49.966;8.342;2023-04-01T11:37:51;0.10;;;0.10;;
61640;SDS011;62201;49.966;8.342;2023-04-01T11:40:51;2.50;;;0.10;;
61640;SDS011;62201;49.966;8.342;2023-04-01T11:48:50;1.55;;;0.10;;
61640;SDS011;62201;49.966;8.342;2023-04-01T11:57:49;1.00;;;0.10;;
61640;SDS011;62201;49.966;8.342;2023-04-01T12:08:10;0.10;;;0.10;;
61640;SDS011;62201;49.966;8.342;2023-04-01T12:10:44;0.47;;;0.10;;
61640;SDS011;62201;49.966;8.342;2023-04-01T12:13:29;0.20;;;0.20;;
61640;SDS011;62201;49.966;8.342;2023-04-01T12:19:09;0.38;;;0.15;;
61640;SDS011;62201;49.966;8.342;2023-04-01T12:22:12;0.55;;;0.20;;
61640;SDS011;62201;49.966;8.342;2023-04-01T12:24:52;0.20;;;0.10;;
61640;SDS011;62201;49.966;8.342;2023-04-01T12:39:06;0.95;;;0.20;;
61640;SDS011;62201;49.966;8.342;2023-04-01T12:41:59;0.88;;;0.10;;
61640;SDS011;62201;49.966;8.342;2023-04-01T12:56:09;0.32;;;0.08;;
61640;SDS011;62201;49.966;8.342;2023-04-01T12:59:00;0.77;;;0.20;;
61640;SDS011;62201;49.966;8.342;2023-04-01T13:04:26;1.67;;;0.20;;
61640;SDS011;62201;49.966;8.342;2023-04-01T13:07:23;0.82;;;0.20;;
61640;SDS011;62201;49.966;8.342;2023-04-01T13:18:29;3.17;;;0.22;;
61640;SDS011;62201;49.966;8.342;2023-04-01T13:21:16;0.50;;;0.20;;
61640;SDS011;62201;49.966;8.342;2023-04-01T13:26:40;0.20;;;0.10;;
61640;SDS011;62201;49.966;8.342;2023-04-01T13:29:28;0.52;;;0.20;;
61640;SDS011;62201;49.966;8.342;2023-04-01T13:39:47;0.40;;;0.20;;
61640;SDS011;62201;49.966;8.342;2023-04-01T13:42:35;0.80;;;0.22;;
61640;SDS011;62201;49.966;8.342;2023-04-01T13:48:07;0.43;;;0.10;;
61640;SDS011;62201;49.966;8.342;2023-04-01T14:02:18;0.68;;;0.20;;
61640;SDS011;62201;49.966;8.342;2023-04-01T14:05:17;0.20;;;0.20;;
61640;SDS011;62201;49.966;8.342;2023-04-01T14:10:46;0.45;;;0.05;;
61640;SDS011;62201;49.966;8.342;2023-04-01T14:19:03;1.65;;;0.10;;
61640;SDS011;62201;49.966;8.342;2023-04-01T14:21:50;0.30;;;0.10;;
61640;SDS011;62201;49.966;8.342;2023-04-01T14:24:51;1.05;;;0.15;;
61640;SDS011;62201;49.966;8.342;2023-04-01T14:27:45;0.47;;;0.10;;
61640;SDS011;62201;49.966;8.342;2023-04-01T14:33:15;0.63;;;0.10;;
61640;SDS011;62201;49.966;8.342;2023-04-01T14:36:03;1.08;;;0.10;;
61640;SDS011;62201;49.966;8.342;2023-04-01T14:47:15;1.50;;;0.20;;
61640;SDS011;62201;49.966;8.342;2023-04-01T14:49:54;0.10;;;0.10;;
61640;SDS011;62201;49.966;8.342;2023-04-01T14:52:36;0.13;;;0.10;;
61640;SDS011;62201;49.966;8.342;2023-04-01T14:55:18;0.75;;;0.20;;
61640;SDS011;62201;49.966;8.342;2023-04-01T15:00:41;0.10;;;0.10;;
61640;SDS011;62201;49.966;8.342;2023-04-01T15:03:17;0.35;;;0.10;;
61640;SDS011;62201;49.966;8.342;2023-04-01T15:05:56;0.43;;;0.20;;
61640;SDS011;62201;49.966;8.342;2023-04-01T15:25:16;1.10;;;0.10;;
61640;SDS011;62201;49.966;8.342;2023-04-01T15:28:06;0.20;;;0.10;;
61640;SDS011;62201;49.966;8.342;2023-04-01T15:30:48;0.52;;;0.20;;
61640;SDS011;62201;49.966;8.342;2023-04-01T15:36:06;0.57;;;0.20;;
61640;SDS011;62201;49.966;8.342;2023-04-01T15:38:50;0.98;;;0.22;;
61640;SDS011;62201;49.966;8.342;2023-04-01T15:41:28;0.75;;;0.10;;
61640;SDS011;62201;49.966;8.342;2023-04-01T15:44:27;0.82;;;0.20;;
61640;SDS011;62201;49.966;8.342;2023-04-01T15:47:08;1.63;;;0.25;;
61640;SDS011;62201;49.966;8.342;2023-04-01T15:49:56;0.20;;;0.10;;
61640;SDS011;62201;49.966;8.342;2023-04-01T15:55:13;0.55;;;0.10;;
61640;SDS011;62201;49.966;8.342;2023-04-01T16:06:24;0.43;;;0.17;;
61640;SDS011;62201;49.966;8.342;2023-04-01T16:20:43;2.17;;;0.30;;
61640;SDS011;62201;49.966;8.342;2023-04-01T16:25:59;0.63;;;0.35;;
61640;SDS011;62201;49.966;8.342;2023-04-01T16:28:38;0.90;;;0.20;;
61640;SDS011;62201;49.966;8.342;2023-04-01T16:34:08;0.82;;;0.20;;
61640;SDS011;62201;49.966;8.342;2023-04-01T16:37:39;1.58;;;0.20;;
61640;SDS011;62201;49.966;8.342;2023-04-01T16:40:09;1.17;;;0.20;;
61640;SDS011;62201;49.966;8.342;2023-04-01T16:42:51;0.63;;;0.43;;
61640;SDS011;62201;49.966;8.342;2023-04-01T16:45:33;1.10;;;0.20;;
61640;SDS011;62201;49.966;8.342;2023-04-01T16:48:14;2.05;;;0.20;;
61640;SDS011;62201;49.966;8.342;2023-04-01T16:51:04;0.47;;;0.30;;
61640;SDS011;62201;49.966;8.342;2023-04-01T16:53:43;0.77;;;0.50;;
61640;SDS011;62201;49.966;8.342;2023-04-01T16:56:21;0.77;;;0.43;;
61640;SDS011;62201;49.966;8.342;2023-04-01T17:01:29;0.55;;;0.28;;
61640;SDS011;62201;49.966;8.342;2023-04-01T17:04:19;1.48;;;0.40;;
61640;SDS011;62201;49.966;8.342;2023-04-01T17:20:59;0.57;;;0.20;;
61640;SDS011;62201;49.966;8.342;2023-04-01T17:27:13;0.63;;;0.10;;
61640;SDS011;62201;49.966;8.342;2023-04-01T17:32:50;1.65;;;0.20;;
61640;SDS011;62201;49.966;8.342;2023-04-01T17:35:40;0.75;;;0.20;;
61640;SDS011;62201;49.966;8.342;2023-04-01T17:44:14;0.20;;;0.20;;
61640;SDS011;62201;49.966;8.342;2023-04-01T17:49:35;1.05;;;0.60;;
61640;SDS011;62201;49.966;8.342;2023-04-01T17:52:27;1.45;;;1.35;;
61640;SDS011;62201;49.966;8.342;2023-04-01T17:58:12;0.55;;;0.40;;
61640;SDS011;62201;49.966;8.342;2023-04-01T18:12:13;0.60;;;0.35;;
61640;SDS011;62201;49.966;8.342;2023-04-01T18:15:06;3.75;;;2.60;;
61640;SDS011;62201;49.966;8.342;2023-04-01T18:17:47;1.05;;;0.43;;
61640;SDS011;62201;49.966;8.342;2023-04-01T18:20:32;2.40;;;1.90;;
61640;SDS011;62201;49.966;8.342;2023-04-01T18:23:14;6.53;;;5.25;;
61640;SDS011;62201;49.966;8.342;2023-04-01T18:26:07;0.73;;;0.50;;
61640;SDS011;62201;49.966;8.342;2023-04-01T18:31:27;0.65;;;0.20;;
61640;SDS011;62201;49.966;8.342;2023-04-01T18:34:13;0.40;;;0.20;;
61640;SDS011;62201;49.966;8.342;2023-04-01T18:36:47;0.38;;;0.17;;
61640;SDS011;62201;49.966;8.342;2023-04-01T18:53:09;1.42;;;0.30;;
61640;SDS011;62201;49.966;8.342;2023-04-01T18:55:57;1.75;;;0.20;;
61640;SDS011;62201;49.966;8.342;2023-04-01T18:58:35;1.88;;;0.40;;
61640;SDS011;62201;49.966;8.342;2023-04-01T19:01:19;0.50;;;0.20;;
61640;SDS011;62201;49.966;8.342;2023-04-01T19:04:10;0.80;;;0.30;;
61640;SDS011;62201;49.966;8.342;2023-04-01T19:06:58;0.47;;;0.20;;
61640;SDS011;62201;49.966;8.342;2023-04-01T19:17:26;0.90;;;0.10;;
61640;SDS011;62201;49.966;8.342;2023-04-01T19:19:56;1.63;;;0.40;;
61640;SDS011;62201;49.966;8.342;2023-04-01T19:22:50;0.77;;;0.30;;
61640;SDS011;62201;49.966;8.342;2023-04-01T19:25:34;0.90;;;0.20;;
61640;SDS011;62201;49.966;8.342;2023-04-01T19:28:07;3.40;;;0.30;;
61640;SDS011;62201;49.966;8.342;2023-04-01T19:34:07;1.67;;;0.30;;
61640;SDS011;62201;49.966;8.342;2023-04-01T19:36:40;1.77;;;0.40;;
61640;SDS011;62201;49.966;8.342;2023-04-01T19:39:57;1.75;;;0.30;;
61640;SDS011;62201;49.966;8.342;2023-04-01T19:45:29;1.67;;;0.40;;
61640;SDS011;62201;49.966;8.342;2023-04-01T19:48:12;2.03;;;0.43;;
61640;SDS011;62201;49.966;8.342;2023-04-01T19:51:09;1.10;;;0.35;;
61640;SDS011;62201;49.966;8.342;2023-04-01T19:53:59;1.27;;;0.47;;
61640;SDS011;62201;49.966;8.342;2023-04-01T19:56:46;1.73;;;0.50;;
61640;SDS011;62201;49.966;8.342;2023-04-01T20:04:36;2.38;;;0.88;;
61640;SDS011;62201;49.966;8.342;2023-04-01T20:10:08;1.08;;;0.35;;
61640;SDS011;62201;49.966;8.342;2023-04-01T20:12:46;1.02;;;0.30;;
61640;SDS011;62201;49.966;8.342;2023-04-01T20:15:44;2.05;;;0.52;;
61640;SDS011;62201;49.966;8.342;2023-04-01T20:20:59;2.45;;;0.40;;
61640;SDS011;62201;49.966;8.342;2023-04-01T20:23:45;1.90;;;0.30;;
61640;SDS011;62201;49.966;8.342;2023-04-01T20:26:32;0.75;;;0.50;;
61640;SDS011;62201;49.966;8.342;2023-04-01T20:31:41;1.33;;;0.50;;
61640;SDS011;62201;49.966;8.342;2023-04-01T20:37:01;0.80;;;0.25;;
61640;SDS011;62201;49.966;8.342;2023-04-01T20:45:34;1.63;;;0.30;;
61640;SDS011;62201;49.966;8.342;2023-04-01T20:50:57;2.30;;;0.38;;
61640;SDS011;62201;49.966;8.342;2023-04-01T20:53:35;1.08;;;0.40;;
61640;SDS011;62201;49.966;8.342;2023-04-01T21:02:16;1.30;;;0.40;;
61640;SDS011;62201;49.966;8.342;2023-04-01T21:05:11;1.17;;;0.40;;
61640;SDS011;62201;49.966;8.342;2023-04-01T21:10:43;2.15;;;0.50;;
61640;SDS011;62201;49.966;8.342;2023-04-01T21:21:32;0.70;;;0.38;;
61640;SDS011;62201;49.966;8.342;2023-04-01T21:38:42;1.23;;;0.40;;
61640;SDS011;62201;49.966;8.342;2023-04-01T21:46:32;0.98;;;0.50;;
61640;SDS011;62201;49.966;8.342;2023-04-01T21:49:21;2.00;;;0.60;;
61640;SDS011;62201;49.966;8.342;2023-04-01T21:55:11;1.67;;;0.50;;
61640;SDS011;62201;49.966;8.342;2023-04-01T22:00:30;2.05;;;0.60;;
61640;SDS011;62201;49.966;8.342;2023-04-01T22:05:39;2.85;;;0.68;;
61640;SDS011;62201;49.966;8.342;2023-04-01T22:08:26;1.10;;;0.50;;
61640;SDS011;62201;49.966;8.342;2023-04-01T22:11:06;1.77;;;0.50;;
61640;SDS011;62201;49.966;8.342;2023-04-01T22:13:45;0.75;;;0.40;;
61640;SDS011;62201;49.966;8.342;2023-04-01T22:16:27;2.80;;;0.60;;
61640;SDS011;62201;49.966;8.342;2023-04-01T22:29:38;1.10;;;0.60;;
61640;SDS011;62201;49.966;8.342;2023-04-01T22:32:16;1.38;;;0.60;;
61640;SDS011;62201;49.966;8.342;2023-04-01T22:37:58;2.03;;;0.70;;
61640;SDS011;62201;49.966;8.342;2023-04-01T22:40:45;0.73;;;0.50;;
61640;SDS011;62201;49.966;8.342;2023-04-01T22:43:23;1.90;;;0.80;;
61640;SDS011;62201;49.966;8.342;2023-04-01T22:48:43;2.25;;;0.75;;
61640;SDS011;62201;49.966;8.342;2023-04-01T22:51:22;1.10;;;0.60;;
61640;SDS011;62201;49.966;8.342;2023-04-01T22:53:52;1.42;;;0.68;;
61640;SDS011;62201;49.966;8.342;2023-04-01T22:56:35;0.50;;;0.50;;
61640;SDS011;62201;49.966;8.342;2023-04-01T23:01:33;1.30;;;0.60;;
61640;SDS011;62201;49.966;8.342;2023-04-01T23:06:33;0.77;;;0.60;;
61640;SDS011;62201;49.966;8.342;2023-04-01T23:09:11;2.10;;;0.55;;
61640;SDS011;62201;49.966;8.342;2023-04-01T23:12:07;1.75;;;0.70;;
61640;SDS011;62201;49.966;8.342;2023-04-01T23:14:37;0.82;;;0.68;;
61640;SDS011;62201;49.966;8.342;2023-04-01T23:17:24;3.00;;;0.90;;
61640;SDS011;62201;49.966;8.342;2023-04-01T23:20:05;0.90;;;0.63;;
61640;SDS011;62201;49.966;8.342;2023-04-01T23:22:44;3.15;;;0.80;;
61640;SDS011;62201;49.966;8.342;2023-04-01T23:25:37;1.10;;;0.70;;
61640;SDS011;62201;49.966;8.342;2023-04-01T23:28:17;1.15;;;0.90;;
61640;SDS011;62201;49.966;8.342;2023-04-01T23:30:51;0.80;;;0.80;;
61640;SDS011;62201;49.966;8.342;2023-04-01T23:35:55;0.90;;;0.80;;
61640;SDS011;62201;49.966;8.342;2023-04-01T23:38:38;1.95;;;0.70;;
61640;SDS011;62201;49.966;8.342;2023-04-01T23:41:30;0.70;;;0.70;;
61640;SDS011;62201;49.966;8.342;2023-04-01T23:43:57;1.83;;;0.75;;
61640;SDS011;62201;49.966;8.342;2023-04-01T23:46:25;6.15;;;0.95;;
61640;SDS011;62201;49.966;8.342;2023-04-01T23:48:51;0.75;;;0.73;;
61640;SDS011;62201;49.966;8.342;2023-04-01T23:51:28;1.98;;;0.70;;
61640;SDS011;62201;49.966;8.342;2023-04-01T23:54:04;1.38;;;0.70;;
61640;SDS011;62201;49.966;8.342;2023-04-01T23:56:39;2.38;;;0.88;;
61640;SDS011;62201;49.966;8.342;2023-04-01T23:59:14;1.05;;;0.80;;
